sensor_id;sensor_type;location;lat;lon;timestamp;noise_LAeq;noise_LA_min;noise_LA_max;noise_LA01;noise_LA95
69609;Laerm;56815;52.320;4.858;2023-09-19T00:00:01;31.22;29.03;37.87;;
69609;Laerm;56815;52.320;4.858;2023-09-19T00:00:11;31.14;29.01;35.44;;
69609;Laerm;56815;52.320;4.858;2023-09-19T00:00:23;31.62;29.47;37.08;;
69609;Laerm;56815;52.320;4.858;2023-09-19T00:00:34;30.83;29.24;36.37;;
69609;Laerm;56815;52.320;4.858;2023-09-19T00:00:44;31.20;29.17;37.39;;
69609;Laerm;56815;52.320;4.858;2023-09-19T00:00:57;31.99;29.42;41.85;;
69609;Laerm;56815;52.320;4.858;2023-09-19T00:01:08;32.18;29.44;38.22;;
69609;Laerm;56815;52.320;4.858;2023-09-19T00:01:19;33.08;29.71;38.29;;
69609;Laerm;56815;52.320;4.858;2023-09-19T00:01:30;34.56;30.87;43.08;;
69609;Laerm;56815;52.320;4.858;2023-09-19T00:01:41;35.35;30.03;44.18;;
69609;Laerm;56815;52.320;4.858;2023-09-19T00:01:54;35.63;31.13;42.48;;
69609;Laerm;56815;52.320;4.858;2023-09-19T00:02:06;33.27;29.85;39.05;;
69609;Laerm;56815;52.320;4.858;2023-09-19T00:02:18;32.07;29.43;38.18;;
69609;Laerm;56815;52.320;4.858;2023-09-19T00:02:29;31.91;29.45;38.56;;
69609;Laerm;56815;52.320;4.858;2023-09-19T00:02:39;33.22;29.48;48.01;;
69609;Laerm;56815;52.320;4.858;2023-09-19T00:02:53;31.71;29.42;34.91;;
69609;Laerm;56815;52.320;4.858;2023-09-19T00:03:04;32.03;29.43;37.95;;
69609;Laerm;56815;52.320;4.858;2023-09-19T00:03:16;31.57;29.38;36.12;;
69609;Laerm;56815;52.320;4.858;2023-09-19T00:03:26;31.23;29.38;33.82;;
69609;Laerm;56815;52.320;4.858;2023-09-19T00:03:38;31.66;29.51;37.06;;
69609;Laerm;56815;52.320;4.858;2023-09-19T00:03:49;30.92;28.90;36.74;;
69609;Laerm;56815;52.320;4.858;2023-09-19T00:03:59;30.73;28.79;36.22;;
69609;Laerm;56815;52.320;4.858;2023-09-19T00:04:11;30.47;28.28;37.34;;
69609;Laerm;56815;52.320;4.858;2023-09-19T00:04:22;30.61;28.79;35.09;;
69609;Laerm;56815;52.320;4.858;2023-09-19T00:04:38;30.67;28.92;36.26;;
69609;Laerm;56815;52.320;4.858;2023-09-19T00:04:49;31.00;28.80;44.15;;
69609;Laerm;56815;52.320;4.858;2023-09-19T00:05:00;30.91;28.67;37.00;;
69609;Laerm;56815;52.320;4.858;2023-09-19T00:05:15;30.58;28.64;35.86;;
69609;Laerm;56815;52.320;4.858;2023-09-19T00:05:25;30.51;28.81;34.73;;
69609;Laerm;56815;52.320;4.858;2023-09-19T00:05:38;30.56;28.35;36.74;;
69609;Laerm;56815;52.320;4.858;2023-09-19T00:05:48;30.55;28.58;35.05;;
69609;Laerm;56815;52.320;4.858;2023-09-19T00:06:00;30.62;28.87;36.67;;
69609;Laerm;56815;52.320;4.858;2023-09-19T00:06:11;30.76;28.84;35.90;;
69609;Laerm;56815;52.320;4.858;2023-09-19T00:06:27;30.30;28.67;33.82;;
69609;Laerm;56815;52.320;4.858;2023-09-19T00:06:38;30.60;28.73;37.81;;
69609;Laerm;56815;52.320;4.858;2023-09-19T00:06:49;30.78;29.07;36.72;;
69609;Laerm;56815;52.320;4.858;2023-09-19T00:07:00;31.40;28.55;37.17;;
69609;Laerm;56815;52.320;4.858;2023-09-19T00:07:12;33.03;30.17;39.68;;
69609;Laerm;56815;52.320;4.858;2023-09-19T00:07:23;33.91;30.70;42.70;;
69609;Laerm;56815;52.320;4.858;2023-09-19T00:07:34;32.33;29.41;47.65;;
69609;Laerm;56815;52.320;4.858;2023-09-19T00:07:46;31.05;28.63;37.70;;
69609;Laerm;56815;52.320;4.858;2023-09-19T00:07:57;30.77;28.25;37.21;;
69609;Laerm;56815;52.320;4.858;2023-09-19T00:08:11;30.80;29.08;33.65;;
69609;Laerm;56815;52.320;4.858;2023-09-19T00:08:23;31.24;29.45;35.92;;
69609;Laerm;56815;52.320;4.858;2023-09-19T00:08:34;32.69;30.52;37.68;;
69609;Laerm;56815;52.320;4.858;2023-09-19T00:08:44;32.05;30.43;37.11;;
69609;Laerm;56815;52.320;4.858;2023-09-19T00:08:54;32.02;29.62;35.75;;
69609;Laerm;56815;52.320;4.858;2023-09-19T00:09:05;31.73;29.45;40.59;;
69609;Laerm;56815;52.320;4.858;2023-09-19T00:09:16;31.02;29.21;36.18;;
69609;Laerm;56815;52.320;4.858;2023-09-19T00:09:26;32.49;30.61;36.20;;
69609;Laerm;56815;52.320;4.858;2023-09-19T00:09:37;31.86;29.50;37.12;;
69609;Laerm;56815;52.320;4.858;2023-09-19T00:09:48;30.86;28.97;35.45;;
69609;Laerm;56815;52.320;4.858;2023-09-19T00:09:58;31.20;29.48;35.77;;
69609;Laerm;56815;52.320;4.858;2023-09-19T00:10:08;30.93;28.87;35.67;;
69609;Laerm;56815;52.320;4.858;2023-09-19T00:10:20;30.71;28.69;39.29;;
69609;Laerm;56815;52.320;4.858;2023-09-19T00:10:32;30.76;28.93;37.33;;
69609;Laerm;56815;52.320;4.858;2023-09-19T00:10:45;30.78;28.50;38.44;;
69609;Laerm;56815;52.320;4.858;2023-09-19T00:10:55;30.65;29.01;34.21;;
69609;Laerm;56815;52.320;4.858;2023-09-19T00:11:05;30.52;28.82;37.65;;
69609;Laerm;56815;52.320;4.858;2023-09-19T00:11:15;31.14;28.93;38.64;;
69609;Laerm;56815;52.320;4.858;2023-09-19T00:11:26;31.30;29.12;38.58;;
69609;Laerm;56815;52.320;4.858;2023-09-19T00:11:37;30.83;28.62;39.55;;
69609;Laerm;56815;52.320;4.858;2023-09-19T00:11:49;30.88;28.95;37.15;;
69609;Laerm;56815;52.320;4.858;2023-09-19T00:11:59;30.95;28.55;38.10;;
69609;Laerm;56815;52.320;4.858;2023-09-19T00:12:10;33.28;29.60;49.47;;
69609;Laerm;56815;52.320;4.858;2023-09-19T00:12:20;31.02;29.30;34.17;;
69609;Laerm;56815;52.320;4.858;2023-09-19T00:12:30;31.53;29.84;37.27;;
69609;Laerm;56815;52.320;4.858;2023-09-19T00:12:44;31.27;29.49;39.54;;
69609;Laerm;56815;52.320;4.858;2023-09-19T00:12:55;30.99;29.20;35.71;;
69609;Laerm;56815;52.320;4.858;2023-09-19T00:13:05;30.57;28.70;37.44;;
69609;Laerm;56815;52.320;4.858;2023-09-19T00:13:17;30.78;28.51;37.27;;
69609;Laerm;56815;52.320;4.858;2023-09-19T00:13:29;30.86;29.13;35.49;;
69609;Laerm;56815;52.320;4.858;2023-09-19T00:13:40;30.71;28.63;36.18;;
69609;Laerm;56815;52.320;4.858;2023-09-19T00:13:51;30.78;28.97;35.46;;
69609;Laerm;56815;52.320;4.858;2023-09-19T00:14:01;30.44;28.57;34.85;;
69609;Laerm;56815;52.320;4.858;2023-09-19T00:14:11;31.02;29.48;37.87;;
69609;Laerm;56815;52.320;4.858;2023-09-19T00:14:25;31.62;29.88;36.72;;
69609;Laerm;56815;52.320;4.858;2023-09-19T00:14:35;31.35;29.43;37.28;;
69609;Laerm;56815;52.320;4.858;2023-09-19T00:14:48;31.53;29.33;38.28;;
69609;Laerm;56815;52.320;4.858;2023-09-19T00:14:58;31.09;28.95;38.36;;
69609;Laerm;56815;52.320;4.858;2023-09-19T00:15:10;30.83;29.20;37.43;;
69609;Laerm;56815;52.320;4.858;2023-09-19T00:15:22;33.22;29.16;50.16;;
69609;Laerm;56815;52.320;4.858;2023-09-19T00:15:36;30.41;28.78;34.59;;
69609;Laerm;56815;52.320;4.858;2023-09-19T00:15:47;31.52;28.99;44.84;;
69609;Laerm;56815;52.320;4.858;2023-09-19T00:16:01;31.61;29.72;36.00;;
69609;Laerm;56815;52.320;4.858;2023-09-19T00:16:11;30.66;28.96;36.19;;
69609;Laerm;56815;52.320;4.858;2023-09-19T00:16:22;30.68;28.71;36.90;;
69609;Laerm;56815;52.320;4.858;2023-09-19T00:16:33;30.81;29.11;35.42;;
69609;Laerm;56815;52.320;4.858;2023-09-19T00:16:43;32.04;29.64;41.17;;
69609;Laerm;56815;52.320;4.858;2023-09-19T00:16:54;32.80;31.01;36.32;;
69609;Laerm;56815;52.320;4.858;2023-09-19T00:17:04;33.00;30.11;46.03;;
69609;Laerm;56815;52.320;4.858;2023-09-19T00:17:18;34.38;29.46;50.41;;
69609;Laerm;56815;52.320;4.858;2023-09-19T00:17:29;33.39;29.38;47.00;;
69609;Laerm;56815;52.320;4.858;2023-09-19T00:17:41;30.81;28.99;39.79;;
69609;Laerm;56815;52.320;4.858;2023-09-19T00:17:53;32.25;29.83;46.01;;
69609;Laerm;56815;52.320;4.858;2023-09-19T00:18:04;32.24;30.00;37.09;;
69609;Laerm;56815;52.320;4.858;2023-09-19T00:18:19;33.04;29.56;46.50;;
69609;Laerm;56815;52.320;4.858;2023-09-19T00:18:34;32.29;29.96;37.97;;
69609;Laerm;56815;52.320;4.858;2023-09-19T00:18:45;31.89;30.07;40.10;;
69609;Laerm;56815;52.320;4.858;2023-09-19T00:18:55;31.28;29.51;36.17;;
69609;Laerm;56815;52.320;4.858;2023-09-19T00:19:05;31.19;29.41;36.00;;
69609;Laerm;56815;52.320;4.858;2023-09-19T00:19:18;31.50;29.75;35.49;;
69609;Laerm;56815;52.320;4.858;2023-09-19T00:19:29;32.86;30.74;36.32;;
69609;Laerm;56815;52.320;4.858;2023-09-19T00:19:39;31.82;29.97;35.69;;
69609;Laerm;56815;52.320;4.858;2023-09-19T00:19:53;30.94;29.09;34.17;;
69609;Laerm;56815;52.320;4.858;2023-09-19T00:20:03;31.20;29.12;36.54;;
69609;Laerm;56815;52.320;4.858;2023-09-19T00:20:22;31.16;28.99;37.88;;
69609;Laerm;56815;52.320;4.858;2023-09-19T00:20:35;30.85;29.01;39.10;;
69609;Laerm;56815;52.320;4.858;2023-09-19T00:20:46;31.37;29.66;36.52;;
69609;Laerm;56815;52.320;4.858;2023-09-19T00:20:58;31.00;29.06;35.06;;
69609;Laerm;56815;52.320;4.858;2023-09-19T00:21:08;31.15;29.19;41.83;;
69609;Laerm;56815;52.320;4.858;2023-09-19T00:21:20;31.29;29.46;34.66;;
69609;Laerm;56815;52.320;4.858;2023-09-19T00:21:33;36.82;31.60;47.07;;
69609;Laerm;56815;52.320;4.858;2023-09-19T00:21:43;31.44;29.40;35.82;;
69609;Laerm;56815;52.320;4.858;2023-09-19T00:21:55;31.01;28.94;37.45;;
69609;Laerm;56815;52.320;4.858;2023-09-19T00:22:06;31.14;29.34;34.20;;
69609;Laerm;56815;52.320;4.858;2023-09-19T00:22:19;31.73;29.71;35.97;;
69609;Laerm;56815;52.320;4.858;2023-09-19T00:22:30;31.49;29.60;36.19;;
69609;Laerm;56815;52.320;4.858;2023-09-19T00:22:40;31.33;29.60;36.14;;
69609;Laerm;56815;52.320;4.858;2023-09-19T00:22:52;31.18;29.52;36.02;;
69609;Laerm;56815;52.320;4.858;2023-09-19T00:23:03;31.28;28.98;35.69;;
69609;Laerm;56815;52.320;4.858;2023-09-19T00:23:18;30.95;29.26;35.64;;
69609;Laerm;56815;52.320;4.858;2023-09-19T00:23:29;30.80;28.88;35.22;;
69609;Laerm;56815;52.320;4.858;2023-09-19T00:23:39;30.38;28.71;34.88;;
69609;Laerm;56815;52.320;4.858;2023-09-19T00:23:52;30.75;28.45;35.47;;
69609;Laerm;56815;52.320;4.858;2023-09-19T00:24:03;30.95;28.79;34.03;;
69609;Laerm;56815;52.320;4.858;2023-09-19T00:24:14;34.50;29.60;43.65;;
69609;Laerm;56815;52.320;4.858;2023-09-19T00:24:24;35.45;29.88;41.21;;
69609;Laerm;56815;52.320;4.858;2023-09-19T00:24:34;31.78;30.07;35.59;;
69609;Laerm;56815;52.320;4.858;2023-09-19T00:24:45;31.72;29.94;35.20;;
69609;Laerm;56815;52.320;4.858;2023-09-19T00:24:56;32.56;30.59;37.30;;
69609;Laerm;56815;52.320;4.858;2023-09-19T00:25:06;31.57;29.47;35.66;;
69609;Laerm;56815;52.320;4.858;2023-09-19T00:25:16;30.88;29.20;35.98;;
69609;Laerm;56815;52.320;4.858;2023-09-19T00:25:27;30.54;28.70;33.01;;
69609;Laerm;56815;52.320;4.858;2023-09-19T00:25:37;30.60;29.02;35.34;;
69609;Laerm;56815;52.320;4.858;2023-09-19T00:25:48;30.60;29.19;34.34;;
69609;Laerm;56815;52.320;4.858;2023-09-19T00:26:00;30.62;29.01;34.49;;
69609;Laerm;56815;52.320;4.858;2023-09-19T00:26:11;30.47;28.75;35.39;;
69609;Laerm;56815;52.320;4.858;2023-09-19T00:26:21;30.50;28.82;37.15;;
69609;Laerm;56815;52.320;4.858;2023-09-19T00:26:32;30.57;28.98;34.77;;
69609;Laerm;56815;52.320;4.858;2023-09-19T00:26:42;31.21;29.06;39.09;;
69609;Laerm;56815;52.320;4.858;2023-09-19T00:26:53;31.18;29.41;35.89;;
69609;Laerm;56815;52.320;4.858;2023-09-19T00:27:09;33.73;30.28;38.49;;
69609;Laerm;56815;52.320;4.858;2023-09-19T00:27:19;32.07;30.38;36.59;;
69609;Laerm;56815;52.320;4.858;2023-09-19T00:27:29;32.84;30.63;38.16;;
69609;Laerm;56815;52.320;4.858;2023-09-19T00:27:39;33.01;31.03;36.92;;
69609;Laerm;56815;52.320;4.858;2023-09-19T00:27:50;31.10;29.31;35.28;;
69609;Laerm;56815;52.320;4.858;2023-09-19T00:28:01;30.90;29.00;37.10;;
69609;Laerm;56815;52.320;4.858;2023-09-19T00:28:12;31.00;29.07;36.65;;
69609;Laerm;56815;52.320;4.858;2023-09-19T00:28:23;31.15;29.20;37.67;;
69609;Laerm;56815;52.320;4.858;2023-09-19T00:28:33;30.83;29.08;33.85;;
69609;Laerm;56815;52.320;4.858;2023-09-19T00:28:43;30.60;29.02;36.58;;
69609;Laerm;56815;52.320;4.858;2023-09-19T00:28:54;30.38;28.58;35.14;;
69609;Laerm;56815;52.320;4.858;2023-09-19T00:29:04;30.52;28.56;35.55;;
69609;Laerm;56815;52.320;4.858;2023-09-19T00:29:15;31.10;29.14;35.02;;
69609;Laerm;56815;52.320;4.858;2023-09-19T00:29:26;31.39;29.20;36.40;;
69609;Laerm;56815;52.320;4.858;2023-09-19T00:29:45;33.64;28.68;43.75;;
69609;Laerm;56815;52.320;4.858;2023-09-19T00:29:55;31.79;28.45;48.90;;
69609;Laerm;56815;52.320;4.858;2023-09-19T00:30:06;30.70;29.08;35.80;;
69609;Laerm;56815;52.320;4.858;2023-09-19T00:30:18;30.81;28.96;37.97;;
69609;Laerm;56815;52.320;4.858;2023-09-19T00:30:34;30.74;28.70;35.48;;
69609;Laerm;56815;52.320;4.858;2023-09-19T00:30:45;31.04;29.04;35.47;;
69609;Laerm;56815;52.320;4.858;2023-09-19T00:30:55;30.86;28.96;33.99;;
69609;Laerm;56815;52.320;4.858;2023-09-19T00:31:07;30.85;28.91;34.30;;
69609;Laerm;56815;52.320;4.858;2023-09-19T00:31:18;30.78;28.57;34.98;;
69609;Laerm;56815;52.320;4.858;2023-09-19T00:31:29;30.85;28.97;34.71;;
69609;Laerm;56815;52.320;4.858;2023-09-19T00:31:40;31.32;29.31;38.02;;
69609;Laerm;56815;52.320;4.858;2023-09-19T00:31:53;33.44;30.07;42.28;;
69609;Laerm;56815;52.320;4.858;2023-09-19T00:32:04;33.00;30.06;38.03;;
69609;Laerm;56815;52.320;4.858;2023-09-19T00:32:15;34.14;30.02;44.22;;
69609;Laerm;56815;52.320;4.858;2023-09-19T00:32:25;33.10;29.89;40.57;;
69609;Laerm;56815;52.320;4.858;2023-09-19T00:32:42;34.46;29.53;43.77;;
69609;Laerm;56815;52.320;4.858;2023-09-19T00:32:52;37.23;30.28;45.89;;
69609;Laerm;56815;52.320;4.858;2023-09-19T00:33:03;33.19;29.83;38.91;;
69609;Laerm;56815;52.320;4.858;2023-09-19T00:33:16;31.74;29.15;35.81;;
69609;Laerm;56815;52.320;4.858;2023-09-19T00:33:26;31.69;29.45;36.59;;
69609;Laerm;56815;52.320;4.858;2023-09-19T00:33:36;31.32;29.37;37.51;;
69609;Laerm;56815;52.320;4.858;2023-09-19T00:33:46;32.15;29.86;36.45;;
69609;Laerm;56815;52.320;4.858;2023-09-19T00:33:58;32.53;30.19;37.61;;
69609;Laerm;56815;52.320;4.858;2023-09-19T00:34:10;33.03;30.43;43.64;;
69609;Laerm;56815;52.320;4.858;2023-09-19T00:34:20;32.01;29.82;37.34;;
69609;Laerm;56815;52.320;4.858;2023-09-19T00:34:31;31.71;29.45;38.92;;
69609;Laerm;56815;52.320;4.858;2023-09-19T00:34:44;31.28;29.49;35.97;;
69609;Laerm;56815;52.320;4.858;2023-09-19T00:34:54;30.91;29.57;35.49;;
69609;Laerm;56815;52.320;4.858;2023-09-19T00:35:06;31.57;29.90;36.00;;
69609;Laerm;56815;52.320;4.858;2023-09-19T00:35:18;30.99;29.37;35.60;;
69609;Laerm;56815;52.320;4.858;2023-09-19T00:35:29;31.12;29.44;34.62;;
69609;Laerm;56815;52.320;4.858;2023-09-19T00:35:39;30.63;28.65;38.07;;
69609;Laerm;56815;52.320;4.858;2023-09-19T00:35:56;31.35;29.16;35.56;;
69609;Laerm;56815;52.320;4.858;2023-09-19T00:36:07;30.04;27.96;34.26;;
69609;Laerm;56815;52.320;4.858;2023-09-19T00:36:18;30.39;28.57;37.64;;
69609;Laerm;56815;52.320;4.858;2023-09-19T00:36:28;30.44;28.69;34.51;;
69609;Laerm;56815;52.320;4.858;2023-09-19T00:36:39;30.40;28.48;36.12;;
69609;Laerm;56815;52.320;4.858;2023-09-19T00:36:50;30.70;28.62;35.90;;
69609;Laerm;56815;52.320;4.858;2023-09-19T00:37:03;30.48;28.08;37.77;;
69609;Laerm;56815;52.320;4.858;2023-09-19T00:37:13;30.37;28.88;33.65;;
69609;Laerm;56815;52.320;4.858;2023-09-19T00:37:24;30.42;28.40;37.20;;
69609;Laerm;56815;52.320;4.858;2023-09-19T00:37:35;30.14;28.69;34.67;;
69609;Laerm;56815;52.320;4.858;2023-09-19T00:37:45;29.96;28.44;34.36;;
69609;Laerm;56815;52.320;4.858;2023-09-19T00:37:56;30.29;28.44;34.11;;
69609;Laerm;56815;52.320;4.858;2023-09-19T00:38:06;31.04;29.54;33.33;;
69609;Laerm;56815;52.320;4.858;2023-09-19T00:38:17;30.42;28.73;34.72;;
69609;Laerm;56815;52.320;4.858;2023-09-19T00:38:29;30.26;28.41;36.67;;
69609;Laerm;56815;52.320;4.858;2023-09-19T00:38:40;31.05;28.61;37.64;;
69609;Laerm;56815;52.320;4.858;2023-09-19T00:38:50;30.41;28.23;34.95;;
69609;Laerm;56815;52.320;4.858;2023-09-19T00:39:01;30.14;28.65;34.52;;
69609;Laerm;56815;52.320;4.858;2023-09-19T00:39:13;30.66;28.34;37.51;;
69609;Laerm;56815;52.320;4.858;2023-09-19T00:39:23;30.38;28.47;33.18;;
69609;Laerm;56815;52.320;4.858;2023-09-19T00:39:35;30.67;28.88;35.24;;
69609;Laerm;56815;52.320;4.858;2023-09-19T00:39:47;31.23;29.38;36.61;;
69609;Laerm;56815;52.320;4.858;2023-09-19T00:39:57;30.46;28.82;36.42;;
69609;Laerm;56815;52.320;4.858;2023-09-19T00:40:07;30.35;28.80;34.87;;
69609;Laerm;56815;52.320;4.858;2023-09-19T00:40:22;30.25;28.68;35.30;;
69609;Laerm;56815;52.320;4.858;2023-09-19T00:40:32;30.64;28.76;41.20;;
69609;Laerm;56815;52.320;4.858;2023-09-19T00:40:44;30.10;28.54;37.48;;
69609;Laerm;56815;52.320;4.858;2023-09-19T00:40:54;29.66;28.10;32.50;;
69609;Laerm;56815;52.320;4.858;2023-09-19T00:41:06;29.72;28.15;35.31;;
69609;Laerm;56815;52.320;4.858;2023-09-19T00:41:17;30.10;28.55;34.48;;
69609;Laerm;56815;52.320;4.858;2023-09-19T00:41:27;30.68;28.78;39.43;;
69609;Laerm;56815;52.320;4.858;2023-09-19T00:41:40;32.29;28.94;36.76;;
69609;Laerm;56815;52.320;4.858;2023-09-19T00:41:51;31.93;29.50;36.93;;
69609;Laerm;56815;52.320;4.858;2023-09-19T00:42:01;32.03;29.16;41.82;;
69609;Laerm;56815;52.320;4.858;2023-09-19T00:42:20;31.92;29.27;39.48;;
69609;Laerm;56815;52.320;4.858;2023-09-19T00:42:31;34.00;29.01;47.56;;
69609;Laerm;56815;52.320;4.858;2023-09-19T00:42:42;34.25;29.56;42.62;;
69609;Laerm;56815;52.320;4.858;2023-09-19T00:42:52;35.59;30.27;41.98;;
69609;Laerm;56815;52.320;4.858;2023-09-19T00:43:07;33.83;29.96;39.19;;
69609;Laerm;56815;52.320;4.858;2023-09-19T00:43:18;32.93;29.39;40.27;;
69609;Laerm;56815;52.320;4.858;2023-09-19T00:43:28;31.92;29.53;35.51;;
69609;Laerm;56815;52.320;4.858;2023-09-19T00:43:39;31.61;29.67;36.27;;
69609;Laerm;56815;52.320;4.858;2023-09-19T00:43:50;31.41;28.86;44.23;;
69609;Laerm;56815;52.320;4.858;2023-09-19T00:44:01;31.36;29.11;35.36;;
69609;Laerm;56815;52.320;4.858;2023-09-19T00:44:12;30.52;28.91;33.91;;
69609;Laerm;56815;52.320;4.858;2023-09-19T00:44:22;30.32;28.85;34.48;;
69609;Laerm;56815;52.320;4.858;2023-09-19T00:44:33;30.58;28.90;34.05;;
69609;Laerm;56815;52.320;4.858;2023-09-19T00:44:44;30.66;28.96;36.85;;
69609;Laerm;56815;52.320;4.858;2023-09-19T00:44:54;30.46;28.42;36.51;;
69609;Laerm;56815;52.320;4.858;2023-09-19T00:45:05;30.25;28.44;35.63;;
69609;Laerm;56815;52.320;4.858;2023-09-19T00:45:16;32.00;29.02;39.44;;
69609;Laerm;56815;52.320;4.858;2023-09-19T00:45:28;31.51;28.75;37.42;;
69609;Laerm;56815;52.320;4.858;2023-09-19T00:45:39;30.21;28.28;33.91;;
69609;Laerm;56815;52.320;4.858;2023-09-19T00:45:52;29.93;28.29;33.42;;
69609;Laerm;56815;52.320;4.858;2023-09-19T00:46:03;30.34;28.30;37.40;;
69609;Laerm;56815;52.320;4.858;2023-09-19T00:46:16;30.07;28.47;34.97;;
69609;Laerm;56815;52.320;4.858;2023-09-19T00:46:27;30.39;28.48;37.25;;
69609;Laerm;56815;52.320;4.858;2023-09-19T00:46:37;29.99;28.32;33.54;;
69609;Laerm;56815;52.320;4.858;2023-09-19T00:46:48;30.09;28.59;33.62;;
69609;Laerm;56815;52.320;4.858;2023-09-19T00:47:00;30.62;29.02;34.52;;
69609;Laerm;56815;52.320;4.858;2023-09-19T00:47:12;32.55;29.55;38.74;;
69609;Laerm;56815;52.320;4.858;2023-09-19T00:47:27;31.82;30.04;35.57;;
69609;Laerm;56815;52.320;4.858;2023-09-19T00:47:48;32.56;30.69;36.85;;
69609;Laerm;56815;52.320;4.858;2023-09-19T00:47:59;31.98;29.51;36.19;;
69609;Laerm;56815;52.320;4.858;2023-09-19T00:48:15;31.85;29.73;37.64;;
69609;Laerm;56815;52.320;4.858;2023-09-19T00:48:25;31.88;29.67;39.65;;
69609;Laerm;56815;52.320;4.858;2023-09-19T00:48:40;32.32;30.10;38.02;;
69609;Laerm;56815;52.320;4.858;2023-09-19T00:48:53;32.36;30.33;37.03;;
69609;Laerm;56815;52.320;4.858;2023-09-19T00:49:04;31.41;29.60;34.75;;
69609;Laerm;56815;52.320;4.858;2023-09-19T00:49:15;31.10;29.11;33.75;;
69609;Laerm;56815;52.320;4.858;2023-09-19T00:49:26;31.31;29.27;33.70;;
69609;Laerm;56815;52.320;4.858;2023-09-19T00:49:37;32.19;29.34;37.93;;
69609;Laerm;56815;52.320;4.858;2023-09-19T00:49:48;31.75;29.75;37.84;;
69609;Laerm;56815;52.320;4.858;2023-09-19T00:50:03;31.24;29.62;35.38;;
69609;Laerm;56815;52.320;4.858;2023-09-19T00:50:15;30.70;28.97;33.58;;
69609;Laerm;56815;52.320;4.858;2023-09-19T00:50:27;31.35;29.22;35.81;;
69609;Laerm;56815;52.320;4.858;2023-09-19T00:50:38;31.12;29.54;33.93;;
69609;Laerm;56815;52.320;4.858;2023-09-19T00:50:52;31.11;28.98;35.70;;
69609;Laerm;56815;52.320;4.858;2023-09-19T00:51:03;30.63;28.94;34.45;;
69609;Laerm;56815;52.320;4.858;2023-09-19T00:51:14;30.58;28.78;34.31;;
69609;Laerm;56815;52.320;4.858;2023-09-19T00:51:29;30.98;29.41;33.68;;
69609;Laerm;56815;52.320;4.858;2023-09-19T00:51:39;31.13;29.60;33.87;;
69609;Laerm;56815;52.320;4.858;2023-09-19T00:51:55;30.78;28.94;36.49;;
69609;Laerm;56815;52.320;4.858;2023-09-19T00:52:06;30.26;28.87;33.91;;
69609;Laerm;56815;52.320;4.858;2023-09-19T00:52:17;30.69;29.00;43.65;;
69609;Laerm;56815;52.320;4.858;2023-09-19T00:52:30;30.17;28.74;34.06;;
69609;Laerm;56815;52.320;4.858;2023-09-19T00:52:42;30.20;28.33;39.56;;
69609;Laerm;56815;52.320;4.858;2023-09-19T00:52:53;30.13;28.62;33.99;;
69609;Laerm;56815;52.320;4.858;2023-09-19T00:53:06;30.76;28.71;35.12;;
69609;Laerm;56815;52.320;4.858;2023-09-19T00:53:19;30.32;28.80;35.09;;
69609;Laerm;56815;52.320;4.858;2023-09-19T00:53:30;30.16;28.52;33.79;;
69609;Laerm;56815;52.320;4.858;2023-09-19T00:53:41;30.23;28.65;34.83;;
69609;Laerm;56815;52.320;4.858;2023-09-19T00:53:56;29.90;27.94;36.06;;
69609;Laerm;56815;52.320;4.858;2023-09-19T00:54:08;30.69;28.53;39.16;;
69609;Laerm;56815;52.320;4.858;2023-09-19T00:54:19;33.10;30.70;38.33;;
69609;Laerm;56815;52.320;4.858;2023-09-19T00:54:29;30.91;28.88;34.93;;
69609;Laerm;56815;52.320;4.858;2023-09-19T00:54:39;30.48;28.03;33.45;;
69609;Laerm;56815;52.320;4.858;2023-09-19T00:54:50;30.29;28.18;33.73;;
69609;Laerm;56815;52.320;4.858;2023-09-19T00:55:00;30.20;28.73;34.56;;
69609;Laerm;56815;52.320;4.858;2023-09-19T00:55:12;30.49;29.06;40.70;;
69609;Laerm;56815;52.320;4.858;2023-09-19T00:55:24;30.71;28.75;36.14;;
69609;Laerm;56815;52.320;4.858;2023-09-19T00:55:36;31.44;28.28;44.68;;
69609;Laerm;56815;52.320;4.858;2023-09-19T00:55:47;30.53;29.02;36.85;;
69609;Laerm;56815;52.320;4.858;2023-09-19T00:55:58;30.39;28.49;36.25;;
69609;Laerm;56815;52.320;4.858;2023-09-19T00:56:08;30.16;28.59;34.58;;
69609;Laerm;56815;52.320;4.858;2023-09-19T00:56:19;30.20;28.40;37.10;;
69609;Laerm;56815;52.320;4.858;2023-09-19T00:56:30;29.98;28.54;35.87;;
69609;Laerm;56815;52.320;4.858;2023-09-19T00:56:41;30.22;28.41;34.48;;
69609;Laerm;56815;52.320;4.858;2023-09-19T00:56:52;30.26;28.30;35.18;;
69609;Laerm;56815;52.320;4.858;2023-09-19T00:57:04;30.10;28.26;36.05;;
69609;Laerm;56815;52.320;4.858;2023-09-19T00:57:15;29.93;28.68;33.53;;
69609;Laerm;56815;52.320;4.858;2023-09-19T00:57:25;29.92;28.57;33.11;;
69609;Laerm;56815;52.320;4.858;2023-09-19T00:57:36;30.01;28.59;33.94;;
69609;Laerm;56815;52.320;4.858;2023-09-19T00:57:48;30.05;28.69;35.43;;
69609;Laerm;56815;52.320;4.858;2023-09-19T00:58:02;30.12;28.48;36.51;;
69609;Laerm;56815;52.320;4.858;2023-09-19T00:58:13;30.15;28.27;38.21;;
69609;Laerm;56815;52.320;4.858;2023-09-19T00:58:23;30.36;28.56;35.41;;
69609;Laerm;56815;52.320;4.858;2023-09-19T00:58:34;30.17;28.61;34.49;;
69609;Laerm;56815;52.320;4.858;2023-09-19T00:58:47;30.25;28.41;33.75;;
69609;Laerm;56815;52.320;4.858;2023-09-19T00:58:57;29.96;28.49;32.92;;
69609;Laerm;56815;52.320;4.858;2023-09-19T00:59:07;30.13;28.58;35.57;;
69609;Laerm;56815;52.320;4.858;2023-09-19T00:59:18;30.09;28.45;33.56;;
69609;Laerm;56815;52.320;4.858;2023-09-19T00:59:28;31.13;28.60;45.89;;
69609;Laerm;56815;52.320;4.858;2023-09-19T00:59:40;37.39;29.05;49.24;;
69609;Laerm;56815;52.320;4.858;2023-09-19T00:59:51;30.48;28.77;33.96;;
69609;Laerm;56815;52.320;4.858;2023-09-19T01:00:04;30.46;28.43;34.51;;
69609;Laerm;56815;52.320;4.858;2023-09-19T01:00:18;30.29;28.87;34.52;;
69609;Laerm;56815;52.320;4.858;2023-09-19T01:00:30;30.09;28.06;36.74;;
69609;Laerm;56815;52.320;4.858;2023-09-19T01:00:42;30.58;28.93;38.04;;
69609;Laerm;56815;52.320;4.858;2023-09-19T01:00:53;30.92;29.17;34.14;;
69609;Laerm;56815;52.320;4.858;2023-09-19T01:01:03;31.66;29.75;34.53;;
69609;Laerm;56815;52.320;4.858;2023-09-19T01:01:16;30.42;28.55;36.72;;
69609;Laerm;56815;52.320;4.858;2023-09-19T01:01:28;30.24;28.51;34.66;;
69609;Laerm;56815;52.320;4.858;2023-09-19T01:01:38;30.32;28.69;35.23;;
69609;Laerm;56815;52.320;4.858;2023-09-19T01:01:49;30.31;28.39;35.82;;
69609;Laerm;56815;52.320;4.858;2023-09-19T01:02:03;30.96;29.02;36.51;;
69609;Laerm;56815;52.320;4.858;2023-09-19T01:02:14;30.38;28.66;35.76;;
69609;Laerm;56815;52.320;4.858;2023-09-19T01:02:26;30.31;28.70;34.83;;
69609;Laerm;56815;52.320;4.858;2023-09-19T01:02:40;30.33;28.05;36.51;;
69609;Laerm;56815;52.320;4.858;2023-09-19T01:02:51;30.04;28.46;33.71;;
69609;Laerm;56815;52.320;4.858;2023-09-19T01:03:02;29.96;28.06;34.91;;
69609;Laerm;56815;52.320;4.858;2023-09-19T01:03:12;29.76;28.39;32.70;;
69609;Laerm;56815;52.320;4.858;2023-09-19T01:03:23;29.75;28.29;33.73;;
69609;Laerm;56815;52.320;4.858;2023-09-19T01:03:34;29.95;28.38;36.77;;
69609;Laerm;56815;52.320;4.858;2023-09-19T01:03:44;29.84;28.22;32.79;;
69609;Laerm;56815;52.320;4.858;2023-09-19T01:03:54;29.96;28.19;40.84;;
69609;Laerm;56815;52.320;4.858;2023-09-19T01:04:05;29.90;28.21;34.80;;
69609;Laerm;56815;52.320;4.858;2023-09-19T01:04:15;30.34;28.52;37.19;;